Lincoln, NE

12:58 PM CDT del 30 Agosto 2015 (GMT -0500)
Capitol Beach | | Change Station
CLOSE
Current Station
Stazione meteo personale
Location: Lincoln, NE
Altitudine: 1134 ft
Stazioni meteo nelle vicinanze

Alt. 1134 ft 40.82 °N, 96.73 °W | Updated 11 seconds ago

Overcast
Coperto
74.1 °F
Sembra 75 °F
N
6.0
Vento Variabile Vento da SSE
Gusts 10.0 mph

Oggi
Massima -- | Minima -- °F
--% Possibilità di precip.
Ieri
Massima -- | Minima -- °F
Precip. -- in
6:51 AM 8:02 PM
Luna piena, 99% visible
Pressione 30.04 in
Visibilità 9.0 miglia
Nuvole Coperto 1600 ft
Indice di calore 75 °F
Punto di rugiada 65 °F
Umidità 74%
Piovosità 0.00 in
Spessore del manto nevoso Non disponibile.
Raggi UV 3 fuori da 12
Polline 10.40 fuori da 12
Qualità dell'aria Non disponibile.
Flu Activity Non disponibile.
METAR KLNK 301754Z 19009KT 9SM OVC016 22/18 A3006 RMK AO2 SLP170 T02220178 10228 20167 58005
Pressione 30.04 in
Visibilità 9.0 miglia
Nuvole Coperto 1600 ft
Indice di calore 75 °F
Punto di rugiada 65 °F
Umidità 74%
Piovosità 0.00 in
Spessore del manto nevoso Non disponibile.
Raggi UV 3 fuori da 12
Polline 10.40 fuori da 12
Qualità dell'aria Non disponibile.
Flu Activity Non disponibile.
METAR KLNK 301754Z 19009KT 9SM OVC016 22/18 A3006 RMK AO2 SLP170 T02220178 10228 20167 58005

10-Day Weather Forecast

×

Almanac

Astronomia

Aug. 30, 2015 Alba Tramonto
Ora attuale
Crepuscolo civile
Crepuscolo nautico
Crepuscolo astronomico
Luna
Estensione della luce visibile
Lunghezza del giorno
Tomorrow will be .
, % of the Moon is Illuminated

Gli estremi di oggi

State Highs State Lows

Community

WunderPhotos

Upload Photos

1,851,014 foto caricate!

WunderBlogs® & News

Nearby

Qualità dell'aria

  Qualità dell'aria Indice AQ Inquinante
Not available.

Profondità neve

Stazione Profondità Altitudine

Attività sismica

Città  Distanza Mag. Data & Ora
Minimo Magnitudo Mostrato è 2.5.

Temperature delle acque costiere

Località Temperatura

Stations

Stazioni meteo nelle vicinanze

Ubicazione della stazione Temp. Raffreddamento del vento Punto di rugiada Umidità Vento Precip. Alt. Aggiornato Tipo